Time;durP1;ratioP1;P1;durP2;ratioP2;P2;SDS_P1;SDS_P2;PMS_P1;PMS_P2;Temp;Humidity;BMP_temperature;BMP_pressure;BME280_temperature;BME280_humidity;BME280_pressure;Samples;Min_cycle;Max_cycle;Signal;HPM_P1;HPM_P2
2022/06/16 00:01:18;;;;;;;;;;;;;;;;;;5107568;28;19915;-58
2022/06/16 00:03:56;;;;;;;;;;;;;;;;;;5088938;28;19920;-60
2022/06/16 00:06:28;;;;;;;;;;;;;;;;;;5090490;28;19908;-60
2022/06/16 00:08:57;;;;;;;;;;;;;;;;;;5107894;28;19943;-59
2022/06/16 00:11:29;;;;;;;;;;;;;;;;;;5084080;28;20003;-59
2022/06/16 00:16:59;;;;;;;;;;;;;;;;;;5092594;28;19917;-60
2022/06/16 00:22:20;;;;;;;;;;;;;;;;;;5059069;28;19908;-59
2022/06/16 00:24:52;;;;;;;;;;;;;;;;;;5107874;28;19908;-59
2022/06/16 00:27:24;;;;;;;;;;;;;;;;;;5107792;28;19912;-60
2022/06/16 00:30:08;;;;;;;;;;;;;;;;;;5107770;28;19918;-59
2022/06/16 00:32:38;;;;;;;;;;;;;;;;;;5108375;28;19923;-60
2022/06/16 00:37:56;;;;;;;;;;;;;;;;;;5108346;28;19908;-59
2022/06/16 00:40:35;;;;;;;;;;;;;;;;;;5089021;28;20369;-59
2022/06/16 00:43:14;;;;;;;;;;;;;;;;;;5107433;28;19912;-59
2022/06/16 00:45:59;;;;;;;;;;;;;;;;;;5108225;28;19912;-60
2022/06/16 00:48:29;;;;;;;;;;;;;;;;;;5107924;28;19915;-59
2022/06/16 00:51:01;;;;;;;;;;;;;;;;;;5088684;28;19975;-59
2022/06/16 00:53:43;;;;;;;;;;;;;;;;;;5106959;28;19919;-60
2022/06/16 00:56:09;;;;;;;;;;;;;;;;;;5088715;28;19951;-59
2022/06/16 00:58:40;;;;;;;;;;;;;;;;;;5106767;28;19909;-60
2022/06/16 01:01:13;;;;;;;;;;;;;;;;;;5088247;28;19911;-59
2022/06/16 01:06:27;;;;;;;;;;;;;;;;;;5106677;28;19915;-59
2022/06/16 01:14:23;;;;;;;;;;;;;;;;;;5106513;28;20277;-59
2022/06/16 01:16:52;;;;;;;;;;;;;;;;;;5107400;28;19916;-59
2022/06/16 01:19:21;;;;;;;;;;;;;;;;;;5106768;28;19971;-59
2022/06/16 01:21:57;;;;;;;;;;;;;;;;;;5106986;28;19915;-60
2022/06/16 01:24:38;;;;;;;;;;;;;;;;;;5107331;28;20255;-60
2022/06/16 01:27:07;;;;;;;;;;;;;;;;;;5106908;28;19908;-59
2022/06/16 01:29:39;;;;;;;;;;;;;;;;;;5107142;28;19908;-59
2022/06/16 01:32:09;;;;;;;;;;;;;;;;;;5087985;28;19912;-59
2022/06/16 01:35:09;;;;;;;;;;;;;;;;;;5106409;28;19912;-59
2022/06/16 01:46:04;;;;;;;;;;;;;;;;;;5005107;28;19910;-59
2022/06/16 01:48:36;;;;;;;;;;;;;;;;;;5004459;28;19914;-59
2022/06/16 01:51:02;;;;;;;;;;;;;;;;;;4955368;28;19920;-59
2022/06/16 01:53:34;;;;;;;;;;;;;;;;;;5025447;28;19918;-59
2022/06/16 01:56:06;;;;;;;;;;;;;;;;;;5106438;28;19914;-59
2022/06/16 01:58:42;;;;;;;;;;;;;;;;;;5088130;28;19915;-58
2022/06/16 02:01:15;;;;;;;;;;;;;;;;;;5105650;28;19909;-59
2022/06/16 02:04:09;;;;;;;;;;;;;;;;;;;;;
2022/06/16 02:06:30;;;;;;;;;;;;;;;;;;5103477;28;19912;-59
2022/06/16 02:12:04;;;;;;;;;;;;;;;;;;5004906;28;19985;-59
2022/06/16 02:17:25;;;;;;;;;;;;;;;;;;5106474;28;20023;-59
2022/06/16 02:19:51;;;;;;;;;;;;;;;;;;5106467;28;19908;-59
2022/06/16 02:22:24;;;;;;;;;;;;;;;;;;5106970;28;19915;-59
2022/06/16 02:27:45;;;;;;;;;;;;;;;;;;5085080;28;20391;-59
2022/06/16 02:30:12;;;;;;;;;;;;;;;;;;5106303;28;19908;-59
2022/06/16 02:32:44;;;;;;;;;;;;;;;;;;5107041;28;19917;-59
2022/06/16 02:35:13;;;;;;;;;;;;;;;;;;5106395;28;20365;-59
2022/06/16 02:40:44;;;;;;;;;;;;;;;;;;5106113;28;19934;-59
2022/06/16 02:43:09;;;;;;;;;;;;;;;;;;5064496;28;19912;-59
2022/06/16 02:45:42;;;;;;;;;;;;;;;;;;5063828;28;19909;-59
2022/06/16 02:50:57;;;;;;;;;;;;;;;;;;5026517;28;20032;-59
2022/06/16 02:53:26;;;;;;;;;;;;;;;;;;5064294;28;20356;-59
2022/06/16 02:55:52;;;;;;;;;;;;;;;;;;5046438;28;19933;-59
2022/06/16 03:01:19;;;;;;;;;;;;;;;;;;5047633;28;20309;-58
2022/06/16 03:03:45;;;;;;;;;;;;;;;;;;5061701;28;19992;-59
2022/06/16 03:06:12;;;;;;;;;;;;;;;;;;5046955;28;19909;-59
2022/06/16 03:08:38;;;;;;;;;;;;;;;;;;5041445;28;20073;-59
2022/06/16 03:11:04;;;;;;;;;;;;;;;;;;5064253;28;19921;-59
2022/06/16 03:13:30;;;;;;;;;;;;;;;;;;5063273;28;19913;-59
2022/06/16 03:15:57;;;;;;;;;;;;;;;;;;5064161;28;19915;-59
2022/06/16 03:21:21;;;;;;;;;;;;;;;;;;5040743;28;19909;-59
2022/06/16 03:24:09;;;;;;;;;;;;;;;;;;5045759;28;19999;-59
2022/06/16 03:26:36;;;;;;;;;;;;;;;;;;5069993;28;19915;-59
2022/06/16 03:32:09;;;;;;;;;;;;;;;;;;5056266;28;20473;-59
2022/06/16 03:37:23;;;;;;;;;;;;;;;;;;5074725;28;20376;-59
2022/06/16 03:39:52;;;;;;;;;;;;;;;;;;5069588;28;20007;-58
2022/06/16 03:42:26;;;;;;;;;;;;;;;;;;5074571;28;19909;-59
2022/06/16 03:44:55;;;;;;;;;;;;;;;;;;5069857;28;20378;-58
2022/06/16 03:47:27;;;;;;;;;;;;;;;;;;5075184;28;19948;-59
2022/06/16 03:49:59;;;;;;;;;;;;;;;;;;5073024;28;20429;-58
2022/06/16 03:52:29;;;;;;;;;;;;;;;;;;5074764;28;19912;-59
2022/06/16 03:54:55;;;;;;;;;;;;;;;;;;5062703;28;20422;-59
2022/06/16 04:00:16;;;;;;;;;;;;;;;;;;5069660;28;19961;-59
2022/06/16 04:03:59;;;;;;;;;;;;;;;;;;5075304;28;19908;-59
2022/06/16 04:05:31;;;;;;;;;;;;;;;;;;5089078;28;19928;-59
2022/06/16 04:16:35;;;;;;;;;;;;;;;;;;5100652;28;20338;-59
2022/06/16 04:19:10;;;;;;;;;;;;;;;;;;5094064;28;19915;-59
2022/06/16 04:21:46;;;;;;;;;;;;;;;;;;5094042;28;19904;-59
2022/06/16 04:24:12;;;;;;;;;;;;;;;;;;5093895;28;19951;-59
2022/06/16 04:29:26;;;;;;;;;;;;;;;;;;5095570;28;19970;-59
2022/06/16 04:31:52;;;;;;;;;;;;;;;;;;5097840;28;19912;-58
2022/06/16 04:34:21;;;;;;;;;;;;;;;;;;5079075;28;20016;-59
2022/06/16 04:36:51;;;;;;;;;;;;;;;;;;5097258;28;20353;-59
2022/06/16 04:39:44;;;;;;;;;;;;;;;;;;;;;
2022/06/16 04:42:11;;;;;;;;;;;;;;;;;;5098515;28;19998;-58
2022/06/16 04:47:35;;;;;;;;;;;;;;;;;;;;;
2022/06/16 04:50:01;;;;;;;;;;;;;;;;;;5098323;28;20276;-59
2022/06/16 04:58:06;;;;;;;;;;;;;;;;;;5097653;28;19912;-59
2022/06/16 05:00:38;;;;;;;;;;;;;;;;;;5097108;28;19908;-59
2022/06/16 05:03:07;;;;;;;;;;;;;;;;;;5097837;28;19916;-59
2022/06/16 05:05:51;;;;;;;;;;;;;;;;;;5073786;28;20289;-59
2022/06/16 05:08:35;;;;;;;;;;;;;;;;;;5076521;28;19908;-58
2022/06/16 05:11:02;;;;;;;;;;;;;;;;;;5076404;28;19962;-57
2022/06/16 05:13:37;;;;;;;;;;;;;;;;;;5077735;28;19909;-59
2022/06/16 05:16:05;;;;;;;;;;;;;;;;;;5073231;28;19938;-59
2022/06/16 05:18:31;;;;;;;;;;;;;;;;;;5075362;28;19909;-59
2022/06/16 05:21:00;;;;;;;;;;;;;;;;;;5077078;28;19931;-59
2022/06/16 05:23:31;;;;;;;;;;;;;;;;;;5076755;28;19915;-58
2022/06/16 05:31:51;;;;;;;;;;;;;;;;;;5064996;28;19924;-59
2022/06/16 05:34:25;;;;;;;;;;;;;;;;;;5077761;28;19908;-59
2022/06/16 05:36:51;;;;;;;;;;;;;;;;;;5076816;28;19908;-59
2022/06/16 05:39:33;;;;;;;;;;;;;;;;;;;;;
2022/06/16 05:42:15;;;;;;;;;;;;;;;;;;;;;
2022/06/16 05:47:26;;;;;;;;;;;;;;;;;;5076395;28;19915;-59
2022/06/16 05:49:58;;;;;;;;;;;;;;;;;;5074684;28;19995;-60
2022/06/16 05:52:37;;;;;;;;;;;;;;;;;;;;;
2022/06/16 05:55:06;;;;;;;;;;;;;;;;;;5076341;28;20366;-59
2022/06/16 05:57:41;;;;;;;;;;;;;;;;;;5074133;28;20366;-59
2022/06/16 06:03:01;;;;;;;;;;;;;;;;;;;;;
2022/06/16 06:05:28;;;;;;;;;;;;;;;;;;5090553;28;20011;-60
2022/06/16 06:19:43;;;;;;;;;;;;;;;;;;5096172;28;19954;-59
2022/06/16 06:24:27;;;;;;;;;;;;;;;;;;5096502;28;19914;-59
2022/06/16 06:26:53;;;;;;;;;;;;;;;;;;5077447;28;20376;-59
2022/06/16 06:29:25;;;;;;;;;;;;;;;;;;5099637;28;19912;-60
2022/06/16 06:32:01;;;;;;;;;;;;;;;;;;5097881;28;19938;-59
2022/06/16 06:34:36;;;;;;;;;;;;;;;;;;5075261;28;20357;-59
2022/06/16 06:37:05;;;;;;;;;;;;;;;;;;5095099;28;19916;-59
2022/06/16 06:39:45;;;;;;;;;;;;;;;;;;5094566;28;19914;-59
2022/06/16 06:42:23;;;;;;;;;;;;;;;;;;;;;
2022/06/16 06:44:53;;;;;;;;;;;;;;;;;;5094528;28;20300;-60
2022/06/16 06:47:27;;;;;;;;;;;;;;;;;;5096069;28;19915;-60
2022/06/16 06:49:53;;;;;;;;;;;;;;;;;;5074128;28;19954;-59
2022/06/16 06:52:25;;;;;;;;;;;;;;;;;;5094890;28;19963;-60
2022/06/16 06:54:57;;;;;;;;;;;;;;;;;;5076588;28;19962;-60
2022/06/16 06:57:29;;;;;;;;;;;;;;;;;;5094223;28;20388;-59
2022/06/16 07:03:12;;;;;;;;;;;;;;;;;;5094792;28;20346;-59
2022/06/16 07:17:05;;;;;;;;;;;;;;;;;;5094268;28;20353;-59
2022/06/16 07:19:53;;;;;;;;;;;;;;;;;;5095522;28;19915;-59
2022/06/16 07:40:02;;;;;;;4.10;3.22;;;;;;;;;;5132583;28;20030;-58
2022/06/16 07:42:33;;;;;;;4.32;3.50;;;;;;;;;;5113659;28;20494;-58
2022/06/16 07:45:02;;;;;;;4.15;3.50;;;;;;;;;;5113567;28;20039;-58
2022/06/16 07:48:02;;;;;;;4.95;3.97;;;;;;;;;;5114015;28;20039;-58
2022/06/16 07:50:40;;;;;;;;;;;;;;;;;;;;;
2022/06/16 07:53:23;;;;;;;4.60;3.70;;;;;;;;;;5132631;28;20019;-58
2022/06/16 07:56:10;;;;;;;5.22;3.85;;;;;;;;;;5132632;28;20367;-58
2022/06/16 07:58:46;;;;;;;5.47;3.72;;;;;;;;;;5088390;28;20036;-58
2022/06/16 08:01:28;;;;;;;5.82;3.72;;;;;;;;;;5089406;28;20043;-58
2022/06/16 08:04:05;;;;;;;4.40;3.67;;;;;;;;;;5072264;28;20024;-58
2022/06/16 08:07:03;;;;;;;;;;;;;;;;;;;;;
2022/06/16 08:09:41;;;;;;;6.93;3.95;;;;;;;;;;5027453;28;20040;-58
2022/06/16 08:12:39;;;;;;;4.85;3.50;;;;;;;;;;5049106;28;20036;-58
2022/06/16 08:18:17;;;;;;;5.22;3.45;;;;;;;;;;5073933;28;20079;-58
2022/06/16 08:20:52;;;;;;;5.45;3.92;;;;;;;;;;5070758;28;20070;-58
2022/06/16 08:23:53;;;;;;;4.22;3.33;;;;;;;;;;5088850;28;20036;-58
2022/06/16 08:26:19;;;;;;;3.88;3.53;;;;;;;;;;5035357;28;20389;-58
2022/06/16 08:29:09;;;;;;;4.20;3.78;;;;;;;;;;5057498;28;20035;-58
2022/06/16 08:31:41;;;;;;;4.32;3.83;;;;;;;;;;5066377;28;20035;-58
2022/06/16 08:37:31;;;;;;;6.50;3.83;;;;;;;;;;5059779;28;20512;-58
2022/06/16 08:40:21;;;;;;;7.10;4.00;;;;;;;;;;5055732;28;20528;-58
2022/06/16 08:46:08;;;;;;;5.72;3.97;;;;;;;;;;5034599;28;20123;-58
2022/06/16 08:48:48;;;;;;;4.82;3.17;;;;;;;;;;5034811;28;20025;-58
2022/06/16 08:51:36;;;;;;;5.25;3.97;;;;;;;;;;5054025;28;20029;-58
2022/06/16 08:54:33;;;;;;;5.00;3.78;;;;;;;;;;5057055;28;20033;-58
2022/06/16 08:57:08;;;;;;;4.45;3.75;;;;;;;;;;5057334;28;20403;-58
2022/06/16 09:00:12;;;;;;;;;;;;;;;;;;;;;
2022/06/16 09:03:02;;;;;;;4.68;3.65;;;;;;;;;;5048227;28;20029;-58
2022/06/16 09:06:03;;;;;;;;;;;;;;;;;;;;;
2022/06/16 09:09:03;;;;;;;4.28;3.78;;;;;;;;;;5053088;28;20037;-58
2022/06/16 09:11:58;;;;;;;6.60;3.95;;;;;;;;;;5056407;28;20040;-58
2022/06/16 09:21:19;;;;;;;5.05;3.33;;;;;;;;;;5012473;28;20026;-58
2022/06/16 09:24:14;;;;;;;4.07;2.88;;;;;;;;;;5031993;28;20048;-58
2022/06/16 09:27:05;;;;;;;8.45;4.05;;;;;;;;;;5054926;28;20386;-58
2022/06/16 09:29:53;;;;;;;3.85;3.20;;;;;;;;;;5056555;28;20143;-58
2022/06/16 09:32:30;;;;;;;3.42;3.00;;;;;;;;;;5055995;28;20021;-58
2022/06/16 09:35:20;;;;;;;5.72;3.38;;;;;;;;;;5060552;28;20401;-58
2022/06/16 09:38:13;;;;;;;4.78;3.50;;;;;;;;;;5076043;28;20362;-58
2022/06/16 09:42:32;;;;;;;3.55;2.97;;;;;;;;;;5073274;28;20094;-58
2022/06/16 09:44:26;;;;;;;3.47;2.60;;;;;;;;;;5069745;28;20033;-58
2022/06/16 09:47:03;;;;;;;5.03;3.35;;;;;;;;;;5058838;28;20504;-58
2022/06/16 09:50:17;;;;;;;4.00;2.88;;;;;;;;;;5075339;28;20028;-58
2022/06/16 09:53:01;;;;;;;3.88;2.97;;;;;;;;;;5013172;28;20168;-58
2022/06/16 09:55:48;;;;;;;;;;;;;;;;;;;;;
2022/06/16 09:58:32;;;;;;;3.35;3.05;;;;;;;;;;5014166;28;20426;-58
2022/06/16 10:01:01;;;;;;;3.97;3.17;;;;;;;;;;5011172;28;20037;-58
2022/06/16 10:03:59;;;;;;;4.53;3.40;;;;;;;;;;5013119;28;20042;-58
2022/06/16 10:06:44;;;;;;;4.55;4.05;;;;;;;;;;5013038;28;20037;-58
2022/06/16 10:09:57;;;;;;;;;;;;;;;;;;;;;
2022/06/16 10:12:33;;;;;;;3.88;2.90;;;;;;;;;;5011387;28;20079;-58
2022/06/16 10:15:12;;;;;;;4.18;3.20;;;;;;;;;;4996815;28;20033;-58
2022/06/16 10:21:07;;;;;;;3.85;3.25;;;;;;;;;;5060694;28;20024;-58
2022/06/16 10:30:01;;;;;;;3.80;3.00;;;;;;;;;;5074932;28;20078;-59
2022/06/16 10:32:45;;;;;;;5.22;3.33;;;;;;;;;;5073528;28;20036;-59
2022/06/16 10:39:14;;;;;;;5.80;3.28;;;;;;;;;;5074577;28;20158;-59
2022/06/16 10:42:22;;;;;;;4.55;2.97;;;;;;;;;;5013148;28;20061;-59
2022/06/16 10:45:21;;;;;;;4.25;3.17;;;;;;;;;;4954218;29;20414;-59
2022/06/16 10:47:55;;;;;;;5.90;4.15;;;;;;;;;;5031008;28;20073;-59
2022/06/16 10:50:42;;;;;;;7.72;3.47;;;;;;;;;;5032172;28;20072;-59
2022/06/16 10:53:36;;;;;;;4.78;3.60;;;;;;;;;;5033073;28;20022;-59
2022/06/16 10:56:41;;;;;;;8.25;2.92;;;;;;;;;;5005914;28;20525;-59
2022/06/16 11:02:38;;;;;;;3.47;3.17;;;;;;;;;;5032280;28;20112;-59
2022/06/16 11:08:21;;;;;;;4.43;3.63;;;;;;;;;;4962412;28;20029;-59
2022/06/16 11:11:01;;;;;;;3.65;3.08;;;;;;;;;;5031510;28;20025;-59
2022/06/16 11:17:03;;;;;;;5.13;3.65;;;;;;;;;;5073309;28;20046;-59
2022/06/16 11:19:29;;;;;;;;;;;;;;;;;;5074766;28;20043;-59
2022/06/16 11:22:34;;;;;;;4.50;2.80;;;;;;;;;;5072952;28;20249;-59
2022/06/16 11:25:22;;;;;;;4.03;2.90;;;;;;;;;;5072244;28;20036;-59
2022/06/16 11:28:24;;;;;;;3.55;3.25;;;;;;;;;;5074357;28;20166;-59
2022/06/16 11:31:03;;;;;;;4.53;3.25;;;;;;;;;;5048895;28;20087;-59
2022/06/16 11:37:13;;;;;;;3.70;3.38;;;;;;;;;;5028427;28;20056;-59
2022/06/16 11:39:55;;;;;;;3.60;2.80;;;;;;;;;;5048169;28;20079;-58
2022/06/16 11:42:54;;;;;;;3.60;3.25;;;;;;;;;;5052271;28;20112;-59
2022/06/16 11:48:46;;;;;;;4.43;3.55;;;;;;;;;;5053545;28;20040;-59
2022/06/16 11:51:32;;;;;;;3.50;2.72;;;;;;;;;;5053361;28;20033;-59
2022/06/16 11:54:34;;;;;;;8.55;3.33;;;;;;;;;;5054514;28;20056;-59
2022/06/16 11:57:04;;;;;;;4.50;3.47;;;;;;;;;;5031254;28;20030;-59
2022/06/16 12:00:06;;;;;;;4.15;3.22;;;;;;;;;;5027646;28;20033;-59
2022/06/16 12:05:49;;;;;;;4.28;3.15;;;;;;;;;;5053332;28;20036;-58
2022/06/16 12:08:24;;;;;;;4.22;3.30;;;;;;;;;;5053332;28;20032;-58
2022/06/16 12:11:03;;;;;;;5.50;3.00;;;;;;;;;;5048687;28;20057;-57
2022/06/16 12:14:00;;;;;;;3.90;3.50;;;;;;;;;;5041352;28;20025;-58
2022/06/16 12:16:51;;;;;;;3.33;3.03;;;;;;;;;;5042480;28;20048;-58
2022/06/16 12:19:39;;;;;;;3.35;2.85;;;;;;;;;;5057680;28;20021;-58
2022/06/16 12:25:38;;;;;;;4.93;2.78;;;;;;;;;;5055555;28;20032;-58
2022/06/16 12:28:10;;;;;;;4.85;2.97;;;;;;;;;;5056457;28;20033;-58
2022/06/16 12:33:59;;;;;;;4.13;3.45;;;;;;;;;;5057277;28;20551;-57
2022/06/16 12:36:35;;;;;;;2.97;2.35;;;;;;;;;;5083321;28;20101;-58
2022/06/16 12:42:12;;;;;;;7.32;3.65;;;;;;;;;;5051676;28;20031;-58
2022/06/16 12:44:44;;;;;;;4.80;2.95;;;;;;;;;;5098102;28;20085;-58
2022/06/16 12:47:14;;;;;;;5.35;3.10;;;;;;;;;;5097090;28;20484;-58
2022/06/16 12:50:10;;;;;;;2.97;2.50;;;;;;;;;;5096334;28;20116;-58
2022/06/16 12:53:08;;;;;;;4.00;3.22;;;;;;;;;;5096536;28;20020;-58
2022/06/16 12:55:36;;;;;;;3.10;2.40;;;;;;;;;;5088957;28;20044;-58
2022/06/16 12:58:20;;;;;;;8.13;2.78;;;;;;;;;;5078081;28;20052;-58
2022/06/16 13:00:57;;;;;;;3.55;2.80;;;;;;;;;;5096723;28;20449;-58
2022/06/16 13:03:31;;;;;;;3.00;2.58;;;;;;;;;;5096959;28;20020;-58
2022/06/16 13:06:16;;;;;;;5.47;2.75;;;;;;;;;;5077520;28;20516;-58
2022/06/16 13:09:06;;;;;;;5.15;2.30;;;;;;;;;;5096250;28;20024;-58
2022/06/16 13:14:51;;;;;;;2.67;1.88;;;;;;;;;;5039917;28;19908;-58
2022/06/16 13:17:29;;;;;;;4.78;2.78;;;;;;;;;;5096076;28;20469;-58
2022/06/16 13:20:12;;;;;;;3.35;2.60;;;;;;;;;;5096916;28;20456;-58
2022/06/16 13:23:02;;;;;;;2.75;2.33;;;;;;;;;;5094818;28;20411;-59
2022/06/16 13:25:57;;;;;;;3.55;1.95;;;;;;;;;;5072080;28;20055;-58
2022/06/16 13:28:49;;;;;;;2.72;2.08;;;;;;;;;;5076151;28;20370;-58
2022/06/16 13:31:50;;;;;;;3.95;3.15;;;;;;;;;;5096228;28;20499;-58
2022/06/16 13:34:42;;;;;;;2.85;2.38;;;;;;;;;;5096153;28;20413;-58
2022/06/16 13:37:28;;;;;;;4.72;3.25;;;;;;;;;;5077383;28;20482;-58
2022/06/16 13:39:58;;;;;;;3.83;2.53;;;;;;;;;;5096259;28;20020;-58
2022/06/16 13:42:43;;;;;;;4.10;2.40;;;;;;;;;;5091379;28;20054;-58
2022/06/16 13:45:16;;;;;;;3.80;2.72;;;;;;;;;;5095542;28;20024;-59
2022/06/16 13:48:21;;;;;;;5.47;2.75;;;;;;;;;;5095931;28;20099;-59
2022/06/16 13:51:01;;;;;;;2.78;2.40;;;;;;;;;;5077272;28;20119;-58
2022/06/16 13:53:38;;;;;;;2.80;1.98;;;;;;;;;;5076203;28;20028;-58
2022/06/16 13:56:37;;;;;;;3.85;2.90;;;;;;;;;;5073116;28;20032;-58
2022/06/16 13:59:38;;;;;;;2.65;2.13;;;;;;;;;;5073286;28;20093;-58
2022/06/16 14:02:15;;;;;;;3.30;2.38;;;;;;;;;;5039941;28;20037;-58
2022/06/16 14:05:23;;;;;;;5.25;3.15;;;;;;;;;;5053389;28;20037;-58
2022/06/16 14:11:22;;;;;;;6.18;3.05;;;;;;;;;;5039575;28;20036;-58
2022/06/16 14:14:36;;;;;;;;;;;;;;;;;;;;;
2022/06/16 14:17:20;;;;;;;3.83;2.88;;;;;;;;;;5051004;28;20037;-58
2022/06/16 14:20:24;;;;;;;4.07;2.63;;;;;;;;;;5033894;28;20033;-58
2022/06/16 14:23:09;;;;;;;3.78;2.70;;;;;;;;;;5037046;28;20029;-58
2022/06/16 14:25:38;;;;;;;3.92;2.63;;;;;;;;;;5035500;28;20037;-58
2022/06/16 14:28:24;;;;;;;3.13;2.30;;;;;;;;;;5039982;28;20040;-58
2022/06/16 14:31:23;;;;;;;3.88;2.88;;;;;;;;;;5052831;28;20116;-59
2022/06/16 14:34:02;;;;;;;7.10;3.15;;;;;;;;;;5086555;28;20066;-58
2022/06/16 14:40:16;;;;;;;5.47;3.13;;;;;;;;;;5094747;28;20090;-58
2022/06/16 14:43:08;;;;;;;3.45;2.90;;;;;;;;;;5071958;28;20124;-58
2022/06/16 14:46:22;;;;;;;6.15;3.50;;;;;;;;;;5072449;28;20423;-58
2022/06/16 14:49:11;;;;;;;5.53;3.17;;;;;;;;;;4992818;28;20058;-58
2022/06/16 14:52:00;;;;;;;3.03;2.72;;;;;;;;;;4972780;28;20104;-58
2022/06/16 14:54:47;;;;;;;4.68;3.63;;;;;;;;;;5032349;28;20037;-59
2022/06/16 14:57:39;;;;;;;4.45;3.25;;;;;;;;;;5050950;28;20087;-58
2022/06/16 15:00:19;;;;;;;3.85;3.03;;;;;;;;;;5022285;28;20535;-58
2022/06/16 15:05:47;;;;;;;3.33;3.03;;;;;;;;;;5037745;28;20103;-58
2022/06/16 15:11:26;;;;;;;4.38;2.97;;;;;;;;;;5027087;28;20033;-59
2022/06/16 15:14:11;;;;;;;5.97;3.08;;;;;;;;;;5033681;28;20603;-59
2022/06/16 15:20:20;;;;;;;4.68;3.45;;;;;;;;;;5092613;28;20035;-59
2022/06/16 15:23:06;;;;;;;4.25;3.35;;;;;;;;;;5093568;28;20099;-59
2022/06/16 15:25:45;;;;;;;4.68;3.28;;;;;;;;;;5091236;28;20028;-59
2022/06/16 15:28:40;;;;;;;3.85;3.53;;;;;;;;;;5093583;28;20373;-60
2022/06/16 15:31:11;;;;;;;4.60;3.65;;;;;;;;;;5074294;28;20032;-59
2022/06/16 15:36:43;;;;;;;4.13;3.42;;;;;;;;;;5093505;28;20063;-59
2022/06/16 15:39:46;;;;;;;5.18;3.80;;;;;;;;;;5094151;28;20020;-59
2022/06/16 15:45:29;;;;;;;3.83;3.40;;;;;;;;;;5093519;28;20513;-59
2022/06/16 15:48:06;;;;;;;5.47;3.13;;;;;;;;;;5098258;28;20024;-59
2022/06/16 15:53:36;;;;;;;3.88;3.00;;;;;;;;;;5097215;28;20032;-59
2022/06/16 15:56:13;;;;;;;5.47;3.60;;;;;;;;;;5096155;28;20111;-59
2022/06/16 16:05:36;;;;;;;4.07;3.30;;;;;;;;;;4979717;28;20041;-59
2022/06/16 16:08:06;;;;;;;3.70;3.00;;;;;;;;;;4999290;28;20053;-58
2022/06/16 16:10:35;;;;;;;;;;;;;;;;;;5066328;28;20078;-58
2022/06/16 16:13:06;;;;;;;4.15;2.70;;;;;;;;;;5097915;28;19904;-58
2022/06/16 16:15:59;;;;;;;4.57;3.28;;;;;;;;;;5097163;28;20023;-59
2022/06/16 16:18:48;;;;;;;5.53;3.00;;;;;;;;;;5076494;28;20032;-58
2022/06/16 16:21:17;;;;;;;3.10;2.80;;;;;;;;;;5094442;28;20111;-58
2022/06/16 16:23:49;;;;;;;3.83;2.92;;;;;;;;;;5078802;28;20028;-59
2022/06/16 16:26:21;;;;;;;7.38;3.47;;;;;;;;;;5079183;28;20020;-59
2022/06/16 16:29:00;;;;;;;6.13;3.13;;;;;;;;;;5079925;28;20016;-59
2022/06/16 16:31:42;;;;;;;4.07;3.08;;;;;;;;;;5096792;28;20415;-59
2022/06/16 16:34:20;;;;;;;5.00;3.00;;;;;;;;;;5097022;28;20366;-58
2022/06/16 16:37:13;;;;;;;4.47;2.72;;;;;;;;;;5097027;28;20043;-59
2022/06/16 16:40:03;;;;;;;3.47;2.65;;;;;;;;;;5095939;28;20028;-58
2022/06/16 16:45:53;;;;;;;2.90;2.17;;;;;;;;;;5096754;28;20058;-58
2022/06/16 16:48:44;;;;;;;3.67;2.63;;;;;;;;;;5036885;28;20032;-58
2022/06/16 16:51:22;;;;;;;3.08;2.63;;;;;;;;;;5054628;28;20025;-58
2022/06/16 16:59:36;;;;;;;5.55;2.72;;;;;;;;;;5079242;28;20103;-59
2022/06/16 17:02:12;;;;;;;3.22;2.42;;;;;;;;;;5078694;28;20047;-58
2022/06/16 17:04:50;;;;;;;4.50;3.00;;;;;;;;;;5095691;28;20423;-58
2022/06/16 17:07:22;;;;;;;6.70;2.55;;;;;;;;;;5096999;28;20020;-58
2022/06/16 17:10:21;;;;;;;2.67;1.95;;;;;;;;;;5095908;28;20024;-59
2022/06/16 17:12:54;;;;;;;2.50;2.10;;;;;;;;;;5077938;28;20395;-58
2022/06/16 17:15:21;;;;;;;2.80;2.20;;;;;;;;;;5078573;28;20485;-58
2022/06/16 17:18:04;;;;;;;3.08;2.17;;;;;;;;;;5065513;28;20440;-58
2022/06/16 17:20:32;;;;;;;4.45;2.53;;;;;;;;;;5096501;28;20111;-58
2022/06/16 17:23:49;;;;;;;2.92;2.05;;;;;;;;;;5077978;28;20087;-58
2022/06/16 17:26:29;;;;;;;4.63;2.00;;;;;;;;;;5092671;28;20024;-60
2022/06/16 17:29:11;;;;;;;;;;;;;;;;;;;;;
2022/06/16 17:35:27;;;;;;;4.32;2.08;;;;;;;;;;5095536;28;20582;-58
2022/06/16 17:38:01;;;;;;;3.40;2.03;;;;;;;;;;5053863;28;20052;-58
2022/06/16 17:40:28;;;;;;;2.97;1.88;;;;;;;;;;5055492;28;20067;-58
2022/06/16 17:42:57;;;;;;;6.18;2.65;;;;;;;;;;5055474;28;20025;-59
2022/06/16 17:45:32;;;;;;;2.92;1.83;;;;;;;;;;5054125;28;20036;-59
2022/06/16 17:48:13;;;;;;;2.85;1.58;;;;;;;;;;5055559;28;20079;-59
2022/06/16 17:50:52;;;;;;;5.70;2.13;;;;;;;;;;5055059;28;20021;-59
2022/06/16 17:59:45;;;;;;;;;;;;;;;;;;5049856;28;20039;-59
2022/06/16 18:02:20;;;;;;;2.22;1.52;;;;;;;;;;5052353;28;19911;-59
2022/06/16 18:05:03;;;;;;;4.38;2.28;;;;;;;;;;5055653;28;20033;-59
2022/06/16 18:10:39;;;;;;;4.70;2.20;;;;;;;;;;5040679;28;20537;-58
2022/06/16 18:13:39;;;;;;;4.10;1.75;;;;;;;;;;5054556;28;20485;-58
2022/06/16 18:16:17;;;;;;;2.93;1.57;;;;;;;;;;5053525;28;20351;-58
2022/06/16 18:18:49;;;;;;;2.67;2.25;;;;;;;;;;5053619;28;20291;-58
2022/06/16 18:21:43;;;;;;;4.93;1.70;;;;;;;;;;5051966;28;20387;-58
2022/06/16 18:24:35;;;;;;;2.28;1.67;;;;;;;;;;5055437;28;20025;-58
2022/06/16 18:27:23;;;;;;;2.92;1.55;;;;;;;;;;5051553;28;20079;-58
2022/06/16 18:30:07;;;;;;;2.38;1.52;;;;;;;;;;5055404;28;20036;-58
2022/06/16 18:32:49;;;;;;;2.58;1.55;;;;;;;;;;5054435;28;20029;-58
2022/06/16 18:35:42;;;;;;;;;;;;;;;;;;;;;
2022/06/16 18:41:13;;;;;;;2.80;1.80;;;;;;;;;;5095100;28;20051;-58
2022/06/16 18:47:07;;;;;;;3.42;1.63;;;;;;;;;;5094984;28;20036;-58
2022/06/16 18:49:38;;;;;;;2.20;1.27;;;;;;;;;;5095275;28;20430;-59
2022/06/16 18:52:36;;;;;;;4.20;1.70;;;;;;;;;;5076603;28;20059;-58
2022/06/16 18:55:03;;;;;;;3.92;1.83;;;;;;;;;;5095217;28;20024;-58
2022/06/16 18:57:50;;;;;;;4.28;1.55;;;;;;;;;;5095369;28;20068;-58
2022/06/16 19:03:34;;;;;;;2.97;1.83;;;;;;;;;;5094518;28;20032;-59
2022/06/16 19:06:41;;;;;;;2.67;1.77;;;;;;;;;;5095218;28;20465;-58
2022/06/16 19:09:23;;;;;;;2.95;1.75;;;;;;;;;;5066294;28;20488;-58
2022/06/16 19:12:18;;;;;;;2.35;1.42;;;;;;;;;;5075911;28;20536;-58
2022/06/16 19:15:05;;;;;;;2.33;1.60;;;;;;;;;;5090736;28;20032;-59
2022/06/16 19:17:46;;;;;;;5.43;2.38;;;;;;;;;;5094063;28;20160;-59
2022/06/16 19:20:12;;;;;;;;;;;;;;;;;;5064245;28;20082;-59
2022/06/16 19:22:58;;;;;;;2.97;2.10;;;;;;;;;;5093835;28;19904;-59
2022/06/16 19:28:38;;;;;;;2.25;1.42;;;;;;;;;;5083074;28;20038;-59
2022/06/16 19:31:45;;;;;;;3.10;1.65;;;;;;;;;;5074116;28;20545;-59
2022/06/16 19:34:26;;;;;;;3.60;2.10;;;;;;;;;;5078667;28;20032;-59
2022/06/16 19:37:02;;;;;;;3.80;1.73;;;;;;;;;;5092625;28;20389;-59
2022/06/16 19:43:08;;;;;;;3.15;2.20;;;;;;;;;;5093529;28;20533;-59
2022/06/16 19:57:17;;;;;;;3.85;2.30;;;;;;;;;;5093697;28;20092;-59
2022/06/16 20:03:12;;;;;;;6.05;1.98;;;;;;;;;;5081424;28;20033;-58
2022/06/16 20:08:43;;;;;;;2.40;1.48;;;;;;;;;;5082428;28;20107;-58
2022/06/16 20:11:32;;;;;;;3.88;1.85;;;;;;;;;;5093834;28;20020;-58
2022/06/16 20:14:26;;;;;;;3.30;1.52;;;;;;;;;;5094164;28;20082;-58
2022/06/16 20:17:07;;;;;;;6.15;1.73;;;;;;;;;;5073438;28;20053;-58
2022/06/16 20:19:34;;;;;;;3.28;2.00;;;;;;;;;;5093487;28;20465;-59
2022/06/16 20:22:14;;;;;;;2.72;1.88;;;;;;;;;;5074816;28;20032;-59
2022/06/16 20:24:50;;;;;;;2.30;1.42;;;;;;;;;;5074982;28;20105;-58
2022/06/16 20:27:32;;;;;;;6.07;1.48;;;;;;;;;;5093972;28;20024;-59
2022/06/16 20:30:35;;;;;;;2.40;1.50;;;;;;;;;;5092003;28;20039;-59
2022/06/16 20:33:18;;;;;;;;;;;;;;;;;;;;;
2022/06/16 20:36:20;;;;;;;4.05;1.70;;;;;;;;;;5093096;28;20124;-58
2022/06/16 20:39:05;;;;;;;3.08;1.80;;;;;;;;;;5075247;28;20058;-59
2022/06/16 20:44:59;;;;;;;2.30;1.67;;;;;;;;;;5077012;28;20039;-59
2022/06/16 20:50:41;;;;;;;2.22;1.55;;;;;;;;;;5014835;28;20428;-58
2022/06/16 21:02:35;;;;;;;2.25;1.85;;;;;;;;;;5078136;28;19997;-59
2022/06/16 21:05:06;;;;;;;2.17;1.08;;;;;;;;;;5000226;28;20030;-59
2022/06/16 21:07:51;;;;;;;2.30;1.60;;;;;;;;;;5016814;28;20365;-58
2022/06/16 21:10:42;;;;;;;2.40;1.67;;;;;;;;;;5016574;28;20042;-58
2022/06/16 21:18:51;;;;;;;2.28;1.60;;;;;;;;;;5078150;28;19958;-58
2022/06/16 21:21:26;;;;;;;1.92;1.25;;;;;;;;;;5077933;28;20037;-58
2022/06/16 21:24:16;;;;;;;3.13;1.92;;;;;;;;;;5078903;28;20017;-58
2022/06/16 21:27:03;;;;;;;4.15;1.60;;;;;;;;;;5078797;28;20099;-58
2022/06/16 21:29:59;;;;;;;3.45;1.83;;;;;;;;;;5078251;28;20027;-58
2022/06/16 21:32:28;;;;;;;3.58;1.70;;;;;;;;;;5075614;28;20032;-58
2022/06/16 21:35:05;;;;;;;5.53;1.92;;;;;;;;;;5077631;28;20497;-58
2022/06/16 21:37:36;;;;;;;3.63;1.95;;;;;;;;;;5077150;28;20434;-59
2022/06/16 21:43:03;;;;;;;2.05;1.38;;;;;;;;;;5098191;28;20389;-58
2022/06/16 21:45:50;;;;;;;4.05;1.55;;;;;;;;;;5098952;28;20456;-58
2022/06/16 21:48:47;;;;;;;2.63;1.63;;;;;;;;;;5098175;28;20507;-58
2022/06/16 21:51:32;;;;;;;2.63;1.67;;;;;;;;;;5098012;28;20027;-58
2022/06/16 21:54:28;;;;;;;3.63;1.63;;;;;;;;;;5098572;28;20039;-58
2022/06/16 21:56:55;;;;;;;2.20;1.42;;;;;;;;;;5099444;28;20036;-58
2022/06/16 21:59:32;;;;;;;2.25;1.20;;;;;;;;;;5096712;28;20040;-58
2022/06/16 22:02:02;;;;;;;2.25;1.70;;;;;;;;;;5098657;28;20024;-58